createdAt,value
2023-02-27T00:02:54.567Z,-1.30
2023-02-27T00:06:30.563Z,-1.37
2023-02-27T00:10:18.855Z,-1.45
2023-02-27T00:14:05.232Z,-1.52
2023-02-27T00:17:53.061Z,-1.59
2023-02-27T00:21:40.748Z,-1.66
2023-02-27T00:25:28.360Z,-1.70
2023-02-27T00:29:17.075Z,-1.74
2023-02-27T00:33:05.109Z,-1.80
2023-02-27T00:36:52.744Z,-1.85
2023-02-27T00:40:40.360Z,-1.91
2023-02-27T00:44:16.713Z,-1.98
2023-02-27T00:48:04.264Z,-2.04
2023-02-27T00:51:51.795Z,-2.10
2023-02-27T00:55:39.336Z,-2.15
2023-02-27T00:59:27.030Z,-2.18
2023-02-27T01:03:14.575Z,-2.20
2023-02-27T01:07:01.664Z,-2.23
2023-02-27T01:10:49.426Z,-2.23
2023-02-27T01:14:37.348Z,-2.24
2023-02-27T01:18:27.016Z,-2.26
2023-02-27T01:22:08.332Z,-2.26
2023-02-27T01:25:57.275Z,-2.27
2023-02-27T01:29:45.766Z,-2.30
2023-02-27T01:33:33.429Z,-2.32
2023-02-27T01:37:21.286Z,-2.36
2023-02-27T01:41:08.937Z,-2.38
2023-02-27T01:45:23.640Z,-2.39
2023-02-27T01:49:36.396Z,-2.42
2023-02-27T01:53:16.963Z,-2.44
2023-02-27T01:57:07.216Z,-2.48
2023-02-27T02:00:54.811Z,-2.54
2023-02-27T02:04:42.889Z,-2.58
2023-02-27T02:08:34.208Z,-2.62
2023-02-27T02:12:25.710Z,-2.66
2023-02-27T02:16:25.153Z,-2.67
2023-02-27T02:20:28.250Z,-2.69
2023-02-27T02:26:03.524Z,-2.69
2023-02-27T02:30:21.014Z,-2.68
2023-02-27T02:34:40.034Z,-2.70
2023-02-27T02:38:41.026Z,-2.73
2023-02-27T02:42:34.705Z,-2.76
2023-02-27T02:46:17.797Z,-2.79
2023-02-27T02:50:12.533Z,-2.82
2023-02-27T02:54:47.611Z,-2.84
2023-02-27T02:58:47.488Z,-2.87
2023-02-27T03:02:38.835Z,-2.89
2023-02-27T03:06:32.273Z,-2.92
2023-02-27T03:10:27.815Z,-2.95
2023-02-27T03:14:12.405Z,-3.00
2023-02-27T03:18:06.626Z,-3.02
2023-02-27T03:21:59.266Z,-3.05
2023-02-27T03:25:47.853Z,-3.07
2023-02-27T03:29:42.306Z,-3.07
2023-02-27T03:33:33.367Z,-3.07
2023-02-27T03:37:28.512Z,-3.08
2023-02-27T03:41:25.490Z,-3.10
2023-02-27T03:45:22.609Z,-3.12
2023-02-27T03:49:10.577Z,-3.14
2023-02-27T03:52:58.595Z,-3.16
2023-02-27T03:56:51.865Z,-3.17
2023-02-27T04:00:39.523Z,-3.19
2023-02-27T04:04:28.568Z,-3.21
2023-02-27T04:08:42.091Z,-3.18
2023-02-27T04:12:54.292Z,-3.14
2023-02-27T04:17:01.110Z,-3.08
2023-02-27T04:20:55.547Z,-3.01
2023-02-27T04:24:53.592Z,-2.94
2023-02-27T04:28:46.103Z,-2.85
2023-02-27T04:32:32.175Z,-2.78
2023-02-27T04:36:20.274Z,-2.71
2023-02-27T04:40:12.273Z,-2.65
2023-02-27T04:44:01.758Z,-2.59
2023-02-27T04:47:53.466Z,-2.52
2023-02-27T04:51:37.866Z,-2.47
2023-02-27T04:55:30.542Z,-2.41
2023-02-27T04:59:11.258Z,-2.36
2023-02-27T05:02:44.738Z,-2.31
2023-02-27T05:06:36.878Z,-2.27
2023-02-27T05:10:31.517Z,-2.22
2023-02-27T05:14:17.642Z,-2.18
2023-02-27T05:18:01.135Z,-2.15
2023-02-27T05:21:56.220Z,-2.11
2023-02-27T05:25:51.826Z,-2.08
2023-02-27T05:29:48.204Z,-2.06
2023-02-27T05:33:33.885Z,-2.03
2023-02-27T05:37:26.858Z,-1.99
2023-02-27T05:41:19.098Z,-1.98
2023-02-27T05:45:12.324Z,-1.95
2023-02-27T05:48:59.233Z,-1.92
2023-02-27T05:52:31.801Z,-1.91
2023-02-27T05:56:20.147Z,-1.91
2023-02-27T06:00:03.200Z,-1.88
2023-02-27T06:03:44.636Z,-1.86
2023-02-27T06:07:17.425Z,-1.84
2023-02-27T06:10:50.152Z,-1.81
2023-02-27T06:14:25.547Z,-1.78
2023-02-27T06:18:15.244Z,-1.75
2023-02-27T06:21:46.831Z,-1.73
2023-02-27T06:25:19.665Z,-1.70
2023-02-27T06:28:57.407Z,-1.65
2023-02-27T06:32:45.628Z,-1.59
2023-02-27T06:36:30.559Z,-1.55
2023-02-27T06:40:23.896Z,-1.49
2023-02-27T06:44:14.628Z,-1.42
2023-02-27T06:47:45.695Z,-1.36
2023-02-27T06:51:24.494Z,-1.28
2023-02-27T06:55:13.858Z,-1.20
2023-02-27T06:58:51.159Z,-1.10
2023-02-27T07:02:35.113Z,-1.03
2023-02-27T07:06:19.567Z,-0.95
2023-02-27T07:09:50.232Z,-0.87
2023-02-27T07:13:21.350Z,-0.80
2023-02-27T07:17:18.138Z,-0.69
2023-02-27T07:20:56.376Z,-0.62
2023-02-27T07:24:38.715Z,-0.53
2023-02-27T07:28:26.433Z,-0.43
2023-02-27T07:32:08.478Z,-0.34
2023-02-27T07:35:46.582Z,-0.26
2023-02-27T07:39:26.798Z,-0.21
2023-02-27T07:43:05.233Z,-0.17
2023-02-27T07:46:35.881Z,-0.12
2023-02-27T07:50:23.646Z,-0.04
2023-02-27T07:54:02.728Z,0.01
2023-02-27T07:57:40.649Z,0.07
2023-02-27T08:01:16.779Z,0.14
2023-02-27T08:04:48.101Z,0.20
2023-02-27T08:08:25.926Z,0.30
2023-02-27T08:12:04.747Z,0.38
2023-02-27T08:15:37.526Z,0.42
2023-02-27T08:19:08.683Z,0.51
2023-02-27T08:22:38.736Z,0.58
2023-02-27T08:26:16.839Z,0.66
2023-02-27T08:30:06.270Z,0.80
2023-02-27T08:33:36.644Z,0.94
2023-02-27T08:37:21.452Z,1.11
2023-02-27T08:40:53.691Z,1.17
2023-02-27T08:44:36.122Z,1.23
2023-02-27T08:48:24.956Z,1.28
2023-02-27T08:51:53.397Z,1.34
2023-02-27T08:55:34.800Z,1.51
2023-02-27T08:59:11.815Z,1.61
2023-02-27T09:02:52.286Z,1.73
2023-02-27T09:06:38.419Z,1.88
2023-02-27T09:10:17.951Z,2.02
2023-02-27T09:13:45.781Z,2.10
2023-02-27T09:17:22.262Z,2.15
2023-02-27T09:21:10.142Z,2.18
2023-02-27T09:24:52.756Z,2.25
2023-02-27T09:28:31.333Z,2.27
2023-02-27T09:32:10.721Z,2.32
2023-02-27T09:35:43.536Z,2.48
2023-02-27T09:39:26.372Z,2.49
2023-02-27T09:43:35.278Z,2.56
2023-02-27T09:47:14.789Z,2.82
2023-02-27T09:50:50.378Z,3.08
2023-02-27T09:54:26.507Z,3.27
2023-02-27T09:58:09.400Z,3.44
2023-02-27T10:02:06.886Z,3.54
2023-02-27T10:05:55.172Z,3.59
2023-02-27T10:09:44.399Z,3.61
2023-02-27T10:13:31.873Z,3.57
2023-02-27T10:17:12.177Z,3.51
2023-02-27T10:20:56.920Z,3.45
2023-02-27T10:24:48.783Z,3.37
2023-02-27T10:28:24.953Z,3.22
2023-02-27T10:32:12.011Z,3.10
2023-02-27T10:35:52.148Z,3.14
2023-02-27T10:39:51.521Z,3.29
2023-02-27T10:43:23.066Z,3.40
2023-02-27T10:47:16.559Z,3.45
2023-02-27T10:50:53.777Z,3.45
2023-02-27T10:54:31.906Z,3.47
2023-02-27T10:58:19.923Z,3.50
2023-02-27T11:01:53.796Z,3.58
2023-02-27T11:05:40.928Z,3.57
2023-02-27T11:09:23.940Z,3.37
2023-02-27T11:13:10.894Z,3.11
2023-02-27T11:16:55.113Z,2.91
2023-02-27T11:20:43.621Z,2.80
2023-02-27T11:24:23.120Z,2.75
2023-02-27T11:28:25.570Z,2.77
2023-02-27T11:31:59.374Z,2.82
2023-02-27T11:35:35.635Z,2.88
2023-02-27T11:39:06.068Z,2.90
2023-02-27T11:42:38.276Z,2.93
2023-02-27T11:46:46.627Z,2.94
2023-02-27T11:50:29.860Z,2.88
2023-02-27T11:54:22.016Z,2.74
2023-02-27T11:58:16.302Z,2.63
2023-02-27T12:02:12.549Z,2.56
2023-02-27T12:05:54.429Z,2.54
2023-02-27T12:09:45.636Z,2.56
2023-02-27T12:13:37.065Z,2.59
2023-02-27T12:17:30.246Z,2.62
2023-02-27T12:21:17.543Z,2.69
2023-02-27T12:24:56.723Z,2.74
2023-02-27T12:28:53.007Z,2.83
2023-02-27T12:32:45.757Z,2.95
2023-02-27T12:36:28.224Z,3.07
2023-02-27T12:40:20.678Z,3.14
2023-02-27T12:44:04.288Z,3.24
2023-02-27T12:47:52.618Z,3.31
2023-02-27T12:51:51.690Z,3.40
2023-02-27T12:55:32.803Z,3.58
2023-02-27T12:59:09.427Z,3.67
2023-02-27T13:03:00.457Z,3.78
2023-02-27T13:06:51.453Z,3.89
2023-02-27T13:10:33.451Z,3.99
2023-02-27T13:14:24.660Z,3.92
2023-02-27T13:18:03.372Z,3.89
2023-02-27T13:21:56.596Z,3.81
2023-02-27T13:25:39.831Z,3.61
2023-02-27T13:29:39.555Z,3.39
2023-02-27T13:33:23.820Z,3.24
2023-02-27T13:37:05.625Z,3.11
2023-02-27T13:40:53.431Z,3.01
2023-02-27T13:44:50.982Z,2.95
2023-02-27T13:48:42.529Z,2.88
2023-02-27T13:52:32.520Z,2.84
2023-02-27T13:56:23.207Z,2.79
2023-02-27T14:00:05.291Z,2.74
2023-02-27T14:03:43.665Z,2.72
2023-02-27T14:07:27.169Z,2.76
2023-02-27T14:11:02.845Z,2.83
2023-02-27T14:14:53.377Z,2.87
2023-02-27T14:18:58.214Z,2.91
2023-02-27T14:23:20.703Z,2.89
2023-02-27T14:26:55.565Z,2.86
2023-02-27T14:30:42.073Z,2.84
2023-02-27T14:34:21.536Z,2.86
2023-02-27T14:37:49.256Z,2.84
2023-02-27T14:41:38.172Z,2.83
2023-02-27T14:45:20.401Z,2.83
2023-02-27T14:49:19.399Z,2.81
2023-02-27T14:52:52.764Z,2.77
2023-02-27T14:56:29.281Z,2.74
2023-02-27T15:00:22.828Z,2.72
2023-02-27T15:04:02.476Z,2.67
2023-02-27T15:07:35.270Z,2.61
2023-02-27T15:11:20.576Z,2.57
2023-02-27T15:14:58.130Z,2.54
2023-02-27T15:18:28.934Z,2.51
2023-02-27T15:22:05.682Z,2.49
2023-02-27T15:25:36.771Z,2.46
2023-02-27T15:29:10.087Z,2.42
2023-02-27T15:32:44.544Z,2.40
2023-02-27T15:36:26.929Z,2.39
2023-02-27T15:40:09.196Z,2.37
2023-02-27T15:43:39.896Z,2.35
2023-02-27T15:47:15.040Z,2.32
2023-02-27T15:50:48.807Z,2.29
2023-02-27T15:54:22.323Z,2.28
2023-02-27T15:58:03.784Z,2.24
2023-02-27T16:01:53.219Z,2.17
2023-02-27T16:05:36.233Z,2.12
2023-02-27T16:09:26.083Z,2.07
2023-02-27T16:12:57.697Z,2.03
2023-02-27T16:16:56.816Z,1.99
2023-02-27T16:20:47.806Z,1.94
2023-02-27T16:24:34.557Z,1.90
2023-02-27T16:28:05.675Z,1.86
2023-02-27T16:31:57.049Z,1.82
2023-02-27T16:35:36.143Z,1.79
2023-02-27T16:39:15.487Z,1.75
2023-02-27T16:42:48.908Z,1.71
2023-02-27T16:46:36.628Z,1.68
2023-02-27T16:50:21.646Z,1.66
2023-02-27T16:53:58.543Z,1.64
2023-02-27T16:57:35.123Z,1.64
2023-02-27T17:01:25.509Z,1.63
2023-02-27T17:05:10.330Z,1.62
2023-02-27T17:08:52.904Z,1.62
2023-02-27T17:12:29.168Z,1.61
2023-02-27T17:16:18.676Z,1.61
2023-02-27T17:19:49.422Z,1.60
2023-02-27T17:23:21.569Z,1.59
2023-02-27T17:26:52.601Z,1.58
2023-02-27T17:30:21.207Z,1.56
2023-02-27T17:33:48.723Z,1.53
2023-02-27T17:37:22.265Z,1.51
2023-02-27T17:40:59.466Z,1.50
2023-02-27T17:44:40.343Z,1.47
2023-02-27T17:48:10.962Z,1.46
2023-02-27T17:51:43.626Z,1.46
2023-02-27T17:55:32.084Z,1.45
2023-02-27T17:58:57.993Z,1.44
2023-02-27T18:02:31.240Z,1.42
2023-02-27T18:05:59.031Z,1.42
2023-02-27T18:09:33.813Z,1.42
2023-02-27T18:13:12.709Z,1.40
2023-02-27T18:16:51.761Z,1.39
2023-02-27T18:20:40.492Z,1.38
2023-02-27T18:24:18.363Z,1.37
2023-02-27T18:27:48.645Z,1.34
2023-02-27T18:31:27.720Z,1.31
2023-02-27T18:35:03.740Z,1.30
2023-02-27T18:38:42.309Z,1.28
2023-02-27T18:42:20.422Z,1.26
2023-02-27T18:45:55.800Z,1.24
2023-02-27T18:49:36.250Z,1.23
2023-02-27T18:53:13.863Z,1.20
2023-02-27T18:56:53.214Z,1.16
2023-02-27T19:00:37.724Z,1.13
2023-02-27T19:04:10.918Z,1.10
2023-02-27T19:07:46.228Z,1.07
2023-02-27T19:11:28.656Z,1.01
2023-02-27T19:15:01.177Z,0.94
2023-02-27T19:18:37.738Z,0.89
2023-02-27T19:22:14.377Z,0.86
2023-02-27T19:25:47.756Z,0.81
2023-02-27T19:29:35.447Z,0.78
2023-02-27T19:33:02.705Z,0.76
2023-02-27T19:36:34.680Z,0.72
2023-02-27T19:40:22.939Z,0.70
2023-02-27T19:43:56.264Z,0.70
2023-02-27T19:47:26.695Z,0.71
2023-02-27T19:50:56.907Z,0.69
2023-02-27T19:54:30.757Z,0.67
2023-02-27T19:58:21.449Z,0.64
2023-02-27T20:01:54.962Z,0.62
2023-02-27T20:05:37.966Z,0.59
2023-02-27T20:09:18.649Z,0.56
2023-02-27T20:12:49.455Z,0.53
2023-02-27T20:16:37.598Z,0.51
2023-02-27T20:20:14.404Z,0.48
2023-02-27T20:24:02.565Z,0.45
2023-02-27T20:27:36.233Z,0.43
2023-02-27T20:31:27.635Z,0.41
2023-02-27T20:35:21.094Z,0.39
2023-02-27T20:39:03.831Z,0.37
2023-02-27T20:42:41.261Z,0.36
2023-02-27T20:46:31.575Z,0.36
2023-02-27T20:49:59.039Z,0.35
2023-02-27T20:53:26.975Z,0.35
2023-02-27T20:56:54.674Z,0.35
2023-02-27T21:00:31.478Z,0.36
2023-02-27T21:04:02.711Z,0.37
2023-02-27T21:07:39.217Z,0.38
2023-02-27T21:11:18.804Z,0.37
2023-02-27T21:14:56.666Z,0.37
2023-02-27T21:18:45.174Z,0.36
2023-02-27T21:22:17.301Z,0.35
2023-02-27T21:25:58.713Z,0.34
2023-02-27T21:29:31.043Z,0.33
2023-02-27T21:33:07.398Z,0.31
2023-02-27T21:36:55.480Z,0.29
2023-02-27T21:40:27.159Z,0.25
2023-02-27T21:44:17.202Z,0.22
2023-02-27T21:47:54.844Z,0.18
2023-02-27T21:51:38.345Z,0.16
2023-02-27T21:55:18.143Z,0.14
2023-02-27T21:58:56.173Z,0.11
2023-02-27T22:02:23.859Z,0.09
2023-02-27T22:06:00.588Z,0.07
2023-02-27T22:09:53.145Z,0.04
2023-02-27T22:13:32.306Z,0.02
2023-02-27T22:17:34.508Z,-0.02
2023-02-27T22:21:25.428Z,-0.06
2023-02-27T22:25:15.080Z,-0.13
2023-02-27T22:28:56.419Z,-0.20
2023-02-27T22:32:33.759Z,-0.28
2023-02-27T22:36:11.228Z,-0.36
2023-02-27T22:39:41.594Z,-0.44
2023-02-27T22:43:14.041Z,-0.53
2023-02-27T22:46:47.157Z,-0.61
2023-02-27T22:50:27.725Z,-0.69
2023-02-27T22:54:01.558Z,-0.76
2023-02-27T22:57:34.443Z,-0.84
2023-02-27T23:01:18.499Z,-0.90
2023-02-27T23:04:49.361Z,-0.99
2023-02-27T23:08:47.019Z,-1.06
2023-02-27T23:12:45.249Z,-1.14
2023-02-27T23:16:22.075Z,-1.23
2023-02-27T23:20:00.552Z,-1.31
2023-02-27T23:23:41.918Z,-1.40
2023-02-27T23:27:29.280Z,-1.48
2023-02-27T23:31:10.494Z,-1.56
2023-02-27T23:34:49.601Z,-1.63
2023-02-27T23:38:37.704Z,-1.72
2023-02-27T23:42:25.102Z,-1.80
2023-02-27T23:46:15.522Z,-1.88
2023-02-27T23:49:52.287Z,-1.96
2023-02-27T23:53:25.142Z,-2.02
2023-02-27T23:57:12.641Z,-2.08
